Time;durP1;ratioP1;P1;durP2;ratioP2;P2;SDS_P1;SDS_P2;PMS_P1;PMS_P2;Temp;Humidity;BMP_temperature;BMP_pressure;BME280_temperature;BME280_humidity;BME280_pressure;Samples;Min_cycle;Max_cycle;Signal;HPM_P1;HPM_P2
2023/01/08 00:01:08;;;;;;;34.77;32.27;;;1.60;99.90;;;;;;5021019;28;20301;-78
2023/01/08 00:03:34;;;;;;;35.47;32.87;;;1.50;99.90;;;;;;5023837;28;20229;-78
2023/01/08 00:06:05;;;;;;;48.13;44.77;;;1.40;99.90;;;;;;5032515;28;20194;-80
2023/01/08 00:08:32;;;;;;;36.73;33.63;;;1.40;99.90;;;;;;5033351;28;20190;-79
2023/01/08 00:10:58;;;;;;;37.40;34.13;;;1.40;99.90;;;;;;5033199;28;20218;-80
2023/01/08 00:13:24;;;;;;;35.00;31.77;;;1.40;99.90;;;;;;5032711;28;20190;-80
2023/01/08 00:15:50;;;;;;;39.93;36.20;;;1.30;99.90;;;;;;5032209;28;20932;-78
2023/01/08 00:18:15;;;;;;;42.27;38.43;;;1.30;99.90;;;;;;5032140;28;20190;-79
2023/01/08 00:20:42;;;;;;;33.20;30.37;;;1.30;99.90;;;;;;5032720;28;20264;-79
2023/01/08 00:23:16;;;;;;;28.70;25.60;;;1.30;99.90;;;;;;5032514;28;20240;-79
2023/01/08 00:25:42;;;;;;;30.73;27.73;;;1.20;99.90;;;;;;5033977;28;20182;-79
2023/01/08 00:28:08;;;;;;;31.90;28.83;;;1.20;99.90;;;;;;5036887;28;20182;-79
2023/01/08 00:30:35;;;;;;;39.67;36.43;;;1.20;99.90;;;;;;5038743;28;20214;-79
2023/01/08 00:33:01;;;;;;;45.57;41.67;;;1.20;99.90;;;;;;5015244;28;20192;-80
2023/01/08 00:35:26;;;;;;;40.13;36.73;;;1.20;99.90;;;;;;5015094;28;20187;-80
2023/01/08 00:37:54;;;;;;;37.00;33.57;;;1.10;99.90;;;;;;5012862;28;20895;-78
2023/01/08 00:40:20;;;;;;;30.17;27.57;;;1.10;99.90;;;;;;5013630;28;20212;-79
2023/01/08 00:42:46;;;;;;;27.33;24.83;;;1.10;99.90;;;;;;5015350;28;20179;-79
2023/01/08 00:45:12;;;;;;;26.10;24.03;;;1.10;99.90;;;;;;5029664;28;20183;-80
2023/01/08 00:47:38;;;;;;;28.50;26.33;;;1.10;99.90;;;;;;5033187;28;20209;-80
2023/01/08 00:50:04;;;;;;;29.37;27.27;;;1.20;99.90;;;;;;5033339;28;20289;-79
2023/01/08 00:52:30;;;;;;;21.87;19.97;;;1.20;99.90;;;;;;5033183;28;20636;-79
2023/01/08 00:54:56;;;;;;;19.87;18.00;;;1.20;99.90;;;;;;5051676;28;20179;-79
2023/01/08 00:57:21;;;;;;;20.50;18.40;;;1.20;99.90;;;;;;5048462;28;20183;-80
2023/01/08 00:59:47;;;;;;;19.13;17.30;;;1.10;99.90;;;;;;5045829;28;20213;-79
2023/01/08 01:02:13;;;;;;;17.87;15.97;;;1.10;99.90;;;;;;5039768;28;20201;-79
2023/01/08 01:04:39;;;;;;;25.13;23.07;;;1.10;99.90;;;;;;5032371;28;20186;-80
2023/01/08 01:07:05;;;;;;;26.53;24.43;;;1.10;99.90;;;;;;5032045;28;20589;-80
2023/01/08 01:09:30;;;;;;;27.50;25.30;;;1.20;99.90;;;;;;5033600;28;20187;-79
2023/01/08 01:11:56;;;;;;;24.83;22.80;;;1.20;99.90;;;;;;5034176;28;20216;-79
2023/01/08 01:14:22;;;;;;;29.03;26.73;;;1.20;99.90;;;;;;5036977;28;20175;-79
2023/01/08 01:16:48;;;;;;;25.37;23.40;;;1.20;99.90;;;;;;5040674;28;20179;-79
2023/01/08 01:19:16;;;;;;;30.87;28.50;;;1.30;99.90;;;;;;5043766;28;20186;-80
2023/01/08 01:21:42;;;;;;;26.10;24.07;;;1.30;99.90;;;;;;5047127;28;20207;-80
2023/01/08 01:24:11;;;;;;;23.57;21.63;;;1.20;99.90;;;;;;5041555;28;20272;-80
2023/01/08 01:26:38;;;;;;;26.67;24.67;;;1.20;99.90;;;;;;5037935;28;20194;-80
2023/01/08 01:29:04;;;;;;;19.47;17.73;;;1.20;99.90;;;;;;5036272;28;20194;-80
2023/01/08 01:31:30;;;;;;;26.53;24.43;;;1.20;99.90;;;;;;5035919;28;20211;-79
2023/01/08 01:33:57;;;;;;;18.47;16.77;;;1.30;99.90;;;;;;5042430;28;20644;-79
2023/01/08 01:36:24;;;;;;;22.77;20.90;;;1.30;99.90;;;;;;5030508;28;20184;-78
2023/01/08 01:38:53;;;;;;;24.90;23.00;;;1.20;99.90;;;;;;5025781;28;20666;-78
2023/01/08 01:41:28;;;;;;;24.17;22.37;;;1.30;99.90;;;;;;5032289;28;20221;-78
2023/01/08 01:44:19;;;;;;;21.03;19.17;;;1.30;99.90;;;;;;5032012;28;20197;-78
2023/01/08 01:46:48;;;;;;;19.43;17.83;;;1.30;99.90;;;;;;5031976;28;20183;-79
2023/01/08 01:49:21;;;;;;;18.83;17.13;;;1.40;99.90;;;;;;5032749;28;20671;-78
2023/01/08 01:51:52;;;;;;;19.07;17.33;;;1.40;99.90;;;;;;5032517;28;20237;-78
2023/01/08 01:54:18;;;;;;;19.10;17.30;;;1.50;99.90;;;;;;5032675;28;20186;-78
2023/01/08 01:56:45;;;;;;;23.97;22.13;;;1.50;99.90;;;;;;5032373;28;20163;-80
2023/01/08 01:59:11;;;;;;;28.57;26.50;;;1.50;99.90;;;;;;5034707;28;20248;-79
2023/01/08 02:01:39;;;;;;;22.80;21.00;;;1.50;99.90;;;;;;5033077;28;20203;-79
2023/01/08 02:04:05;;;;;;;19.27;17.57;;;1.50;99.90;;;;;;5033130;28;20191;-79
2023/01/08 02:06:33;;;;;;;19.93;18.10;;;1.50;99.90;;;;;;5033789;28;20640;-80
2023/01/08 02:09:14;;;;;;;26.13;24.13;;;1.50;99.90;;;;;;5031511;28;20190;-79
2023/01/08 02:12:15;;;;;;;28.47;26.07;;;1.60;99.90;;;;;;5031762;28;20296;-79
2023/01/08 02:15:00;;;;;;;28.13;25.57;;;1.60;99.90;;;;;;5033437;28;20252;-79
2023/01/08 02:17:38;;;;;;;29.17;26.27;;;1.60;99.90;;;;;;5031908;28;20205;-79
2023/01/08 02:20:11;;;;;;;40.47;37.37;;;1.60;99.90;;;;;;5035997;28;20267;-79
2023/01/08 02:23:14;;;;;;;35.03;32.33;;;1.60;99.90;;;;;;5041645;28;20189;-79
2023/01/08 02:26:05;;;;;;;31.17;28.50;;;1.70;99.90;;;;;;5045968;28;20233;-79
2023/01/08 02:28:36;;;;;;;33.47;30.87;;;1.80;99.90;;;;;;5034919;28;20217;-79
2023/01/08 02:31:04;;;;;;;31.17;28.20;;;1.90;99.90;;;;;;5036438;28;20218;-79
2023/01/08 02:33:31;;;;;;;32.50;29.00;;;2.00;99.90;;;;;;5034569;28;20179;-79
2023/01/08 02:36:14;;;;;;;39.07;35.97;;;2.00;99.90;;;;;;5035610;28;20654;-79
2023/01/08 02:38:56;;;;;;;39.43;36.23;;;2.10;99.90;;;;;;5032301;28;20206;-79
2023/01/08 02:41:31;;;;;;;24.70;22.27;;;2.10;99.90;;;;;;4997534;28;1143880;-79
2023/01/08 02:43:59;;;;;;;33.57;30.97;;;2.20;99.90;;;;;;5036971;28;20190;-79
2023/01/08 02:46:31;;;;;;;50.00;46.60;;;2.30;99.90;;;;;;5034549;28;20262;-78
2023/01/08 02:49:10;;;;;;;46.57;42.97;;;2.30;99.90;;;;;;5038528;28;20197;-79
2023/01/08 02:51:46;;;;;;;34.63;31.93;;;2.40;99.90;;;;;;5045658;28;20282;-79
2023/01/08 02:54:16;;;;;;;23.90;21.77;;;2.40;99.90;;;;;;5017767;28;20217;-79
2023/01/08 02:56:50;;;;;;;18.67;16.80;;;2.40;99.90;;;;;;5015428;28;20171;-80
2023/01/08 02:59:17;;;;;;;20.50;18.43;;;2.40;99.90;;;;;;5015987;28;20251;-79
2023/01/08 03:01:44;;;;;;;26.27;24.20;;;2.40;99.90;;;;;;5015550;28;20273;-80
2023/01/08 03:04:17;;;;;;;26.10;23.90;;;2.40;99.90;;;;;;5014627;28;20691;-79
2023/01/08 03:06:43;;;;;;;25.87;23.53;;;2.30;99.90;;;;;;5022085;28;20178;-80
2023/01/08 03:09:10;;;;;;;26.20;24.03;;;2.30;99.90;;;;;;5034006;28;20648;-79
2023/01/08 03:12:01;;;;;;;28.00;25.27;;;2.20;99.90;;;;;;5044105;28;20536;-79
2023/01/08 03:14:35;;;;;;;28.47;26.17;;;2.20;99.90;;;;;;5050843;28;20163;-79
2023/01/08 03:17:08;;;;;;;27.63;25.47;;;2.20;99.90;;;;;;5052657;28;20189;-80
2023/01/08 03:19:47;;;;;;;29.27;26.97;;;2.20;99.90;;;;;;5035800;28;20206;-79
2023/01/08 03:22:16;;;;;;;27.50;25.50;;;2.20;99.90;;;;;;5034652;28;20244;-79
2023/01/08 03:24:43;;;;;;;26.73;24.80;;;2.20;99.90;;;;;;5037437;28;20199;-79
2023/01/08 03:27:15;;;;;;;26.60;24.60;;;2.20;99.90;;;;;;5045690;28;20255;-79
2023/01/08 03:29:40;;;;;;;23.37;21.47;;;2.20;99.90;;;;;;5042184;28;20192;-79
2023/01/08 03:32:11;;;;;;;22.07;20.27;;;2.30;99.90;;;;;;5037651;28;20289;-79
2023/01/08 03:34:40;;;;;;;16.37;14.63;;;2.20;99.90;;;;;;5033836;28;20207;-80
2023/01/08 03:37:07;;;;;;;17.17;15.53;;;2.30;99.90;;;;;;5034472;28;20206;-80
2023/01/08 03:39:45;;;;;;;15.63;14.23;;;2.30;99.90;;;;;;5038142;28;20193;-79
2023/01/08 03:42:13;;;;;;;13.87;12.47;;;2.40;99.90;;;;;;5034714;28;20196;-80
2023/01/08 03:44:39;;;;;;;16.30;14.73;;;2.40;99.90;;;;;;5034443;28;20179;-80
2023/01/08 03:47:09;;;;;;;15.83;14.33;;;2.40;99.90;;;;;;5032446;28;20309;-79
2023/01/08 03:49:36;;;;;;;16.70;15.20;;;2.50;99.90;;;;;;5032628;28;20179;-80
2023/01/08 03:52:02;;;;;;;17.73;16.27;;;2.60;99.90;;;;;;5032525;28;20408;-79
2023/01/08 03:54:34;;;;;;;17.33;15.73;;;2.60;99.90;;;;;;5033489;28;20186;-79
2023/01/08 03:56:59;;;;;;;18.77;16.90;;;2.60;99.90;;;;;;5032613;28;20186;-80
2023/01/08 03:59:25;;;;;;;12.90;11.67;;;2.60;99.90;;;;;;5034169;28;20470;-79
2023/01/08 04:01:51;;;;;;;13.23;12.03;;;2.70;99.90;;;;;;5032857;28;20246;-79
2023/01/08 04:04:17;;;;;;;11.73;10.53;;;2.70;99.90;;;;;;5033463;28;20615;-79
2023/01/08 04:06:43;;;;;;;13.33;11.40;;;2.70;99.90;;;;;;5045494;28;20818;-79
2023/01/08 04:09:09;;;;;;;12.30;11.10;;;2.70;99.90;;;;;;5037922;28;20191;-80
2023/01/08 04:11:35;;;;;;;13.50;10.20;;;2.70;99.90;;;;;;5032938;28;20299;-79
2023/01/08 04:14:01;;;;;;;13.40;12.07;;;2.70;99.90;;;;;;5033672;28;20612;-80
2023/01/08 04:16:27;;;;;;;13.37;12.10;;;2.70;99.90;;;;;;5034600;28;20297;-80
2023/01/08 04:18:52;;;;;;;12.57;11.37;;;2.70;99.90;;;;;;5031854;28;20202;-80
2023/01/08 04:21:18;;;;;;;12.87;11.57;;;2.80;99.90;;;;;;5032646;28;20206;-79
2023/01/08 04:23:44;;;;;;;12.73;11.43;;;2.80;99.90;;;;;;5033499;28;20178;-78
2023/01/08 04:26:11;;;;;;;13.80;12.33;;;2.80;99.90;;;;;;5028266;28;20287;-79
2023/01/08 04:28:36;;;;;;;12.10;11.00;;;2.80;99.90;;;;;;5025170;28;20191;-79
2023/01/08 04:31:07;;;;;;;12.53;11.53;;;2.80;99.90;;;;;;5012348;28;20272;-79
2023/01/08 04:33:33;;;;;;;12.77;11.57;;;2.90;99.90;;;;;;5031169;28;20183;-79
2023/01/08 04:35:59;;;;;;;12.90;11.53;;;2.90;99.90;;;;;;5031345;28;20286;-80
2023/01/08 04:38:24;;;;;;;13.07;11.67;;;2.90;99.90;;;;;;5031538;28;20184;-80
2023/01/08 04:40:56;;;;;;;12.47;11.37;;;2.90;99.90;;;;;;5032527;28;20215;-80
2023/01/08 04:43:22;;;;;;;11.33;10.23;;;3.00;99.90;;;;;;5046381;28;20193;-80
2023/01/08 04:45:47;;;;;;;11.73;10.70;;;3.00;99.90;;;;;;5021736;28;20261;-80
2023/01/08 04:48:13;;;;;;;11.27;10.23;;;3.00;99.90;;;;;;5032337;28;20566;-80
2023/01/08 04:50:39;;;;;;;11.03;10.13;;;3.00;99.90;;;;;;5041495;28;20249;-80
2023/01/08 04:53:05;;;;;;;10.83;9.73;;;2.90;99.90;;;;;;5043934;28;20198;-80
2023/01/08 04:55:31;;;;;;;13.63;8.87;;;2.90;99.90;;;;;;5049821;28;20186;-80
2023/01/08 04:57:57;;;;;;;11.50;10.40;;;3.00;99.90;;;;;;5049015;28;20193;-79
2023/01/08 05:00:23;;;;;;;11.40;10.43;;;3.00;99.90;;;;;;5045420;28;20212;-80
2023/01/08 05:02:49;;;;;;;11.67;10.47;;;3.00;99.90;;;;;;5046346;28;20194;-80
2023/01/08 05:05:15;;;;;;;11.83;10.67;;;3.10;99.90;;;;;;5041231;28;20182;-80
2023/01/08 05:07:40;;;;;;;12.83;10.07;;;3.10;99.90;;;;;;5038317;28;20191;-80
2023/01/08 05:10:07;;;;;;;11.50;10.40;;;3.10;99.90;;;;;;5046088;28;20198;-79
2023/01/08 05:12:32;;;;;;;13.30;11.33;;;3.10;99.90;;;;;;5047363;28;20213;-79
2023/01/08 05:14:59;;;;;;;12.23;11.00;;;3.00;99.90;;;;;;5036704;28;20183;-80
2023/01/08 05:17:25;;;;;;;11.80;10.67;;;3.00;99.90;;;;;;5036705;28;20174;-80
2023/01/08 05:19:51;;;;;;;11.93;10.83;;;3.00;99.90;;;;;;5042123;28;20244;-81
2023/01/08 05:22:16;;;;;;;11.73;10.53;;;3.00;99.90;;;;;;5016518;28;20761;-81
2023/01/08 05:24:42;;;;;;;15.30;12.63;;;3.00;99.90;;;;;;5016547;28;20610;-81
2023/01/08 05:27:08;;;;;;;12.30;11.10;;;3.00;99.90;;;;;;5016442;28;20180;-80
2023/01/08 05:29:33;;;;;;;10.90;9.90;;;3.00;99.90;;;;;;5033419;28;20186;-80
2023/01/08 05:31:59;;;;;;;10.93;9.93;;;3.00;99.90;;;;;;5035067;28;20710;-81
2023/01/08 05:34:25;;;;;;;11.13;10.03;;;3.10;99.90;;;;;;5048754;28;20204;-82
2023/01/08 05:36:51;;;;;;;11.33;10.33;;;3.10;99.90;;;;;;5054817;28;20188;-79
2023/01/08 05:39:16;;;;;;;11.20;10.20;;;3.20;99.90;;;;;;5035235;28;20663;-78
2023/01/08 05:41:42;;;;;;;11.47;10.47;;;3.30;99.90;;;;;;5016515;22;20233;-79
2023/01/08 05:44:09;;;;;;;12.73;10.30;;;3.30;99.90;;;;;;4969561;28;20239;-80
2023/01/08 05:46:34;;;;;;;10.53;9.53;;;3.30;99.90;;;;;;4956890;28;20682;-79
2023/01/08 05:49:00;;;;;;;11.40;9.30;;;3.30;99.90;;;;;;4959097;28;20181;-79
2023/01/08 05:51:26;;;;;;;11.80;10.67;;;3.40;99.90;;;;;;4959684;28;20233;-78
2023/01/08 05:53:52;;;;;;;10.67;9.63;;;3.50;99.90;;;;;;4960719;28;20185;-78
2023/01/08 05:56:17;;;;;;;12.00;10.80;;;3.50;99.90;;;;;;4964087;28;20571;-78
2023/01/08 05:58:43;;;;;;;9.87;8.87;;;3.40;99.90;;;;;;4995374;28;20196;-78
2023/01/08 06:01:12;;;;;;;11.43;10.33;;;3.40;99.90;;;;;;4989451;28;20199;-78
2023/01/08 06:03:38;;;;;;;11.13;9.93;;;3.40;99.90;;;;;;4989833;28;20201;-79
2023/01/08 06:06:05;;;;;;;11.87;10.77;;;3.40;99.90;;;;;;4983418;28;20200;-79
2023/01/08 06:08:33;;;;;;;10.70;9.80;;;3.50;99.90;;;;;;4981929;28;20684;-78
2023/01/08 06:11:01;;;;;;;10.20;9.30;;;3.60;99.90;;;;;;4960973;28;20596;-78
2023/01/08 06:13:27;;;;;;;10.17;9.27;;;3.60;99.90;;;;;;4990512;28;20264;-77
2023/01/08 06:15:53;;;;;;;12.73;10.90;;;3.60;99.90;;;;;;4977606;28;20317;-78
2023/01/08 06:18:18;;;;;;;11.73;10.57;;;3.50;99.90;;;;;;4979257;28;20180;-77
2023/01/08 06:20:44;;;;;;;11.73;10.80;;;3.50;99.90;;;;;;4985165;28;20521;-78
2023/01/08 06:23:10;;;;;;;15.73;14.60;;;3.60;99.90;;;;;;4975790;28;20185;-78
2023/01/08 06:25:36;;;;;;;23.90;22.23;;;3.70;99.90;;;;;;4973778;28;20192;-78
2023/01/08 06:28:03;;;;;;;17.80;16.50;;;3.70;99.90;;;;;;4975259;28;20220;-78
2023/01/08 06:30:29;;;;;;;23.43;21.80;;;3.70;99.90;;;;;;4955832;28;20213;-78
2023/01/08 06:32:56;;;;;;;22.10;20.53;;;3.80;99.90;;;;;;4952255;29;20223;-77
2023/01/08 06:35:22;;;;;;;16.30;15.00;;;3.90;99.90;;;;;;4954258;28;20272;-77
2023/01/08 06:37:47;;;;;;;17.93;16.53;;;3.90;99.90;;;;;;4952603;28;20275;-77
2023/01/08 06:40:13;;;;;;;17.60;12.40;;;4.00;99.90;;;;;;4969891;28;20630;-77
2023/01/08 06:42:39;;;;;;;10.50;9.57;;;4.10;99.90;;;;;;4974699;28;20327;-78
2023/01/08 06:45:06;;;;;;;11.50;10.40;;;4.10;99.90;;;;;;4973571;28;20192;-77
2023/01/08 06:47:32;;;;;;;11.17;10.07;;;4.00;99.90;;;;;;4971401;28;20218;-77
2023/01/08 06:49:58;;;;;;;11.73;10.50;;;4.00;99.90;;;;;;4972795;28;20199;-77
2023/01/08 06:52:24;;;;;;;19.07;17.70;;;4.00;99.90;;;;;;4972956;28;20216;-77
2023/01/08 06:54:51;;;;;;;19.27;17.73;;;4.00;99.90;;;;;;4971849;28;20185;-76
2023/01/08 06:57:17;;;;;;;24.77;23.07;;;4.00;99.90;;;;;;4971757;28;20558;-77
2023/01/08 06:59:43;;;;;;;20.47;18.77;;;4.10;99.90;;;;;;4972529;28;20185;-75
2023/01/08 07:02:16;;;;;;;30.47;28.27;;;4.20;99.90;;;;;;4964912;28;20260;-75
2023/01/08 07:04:43;;;;;;;21.17;19.33;;;4.20;99.90;;;;;;4959730;28;20276;-75
2023/01/08 07:07:12;;;;;;;33.97;31.77;;;4.30;99.90;;;;;;4958390;28;20192;-75
2023/01/08 07:09:39;;;;;;;40.03;36.37;;;4.30;99.90;;;;;;4972450;28;20193;-75
2023/01/08 07:12:05;;;;;;;41.53;37.90;;;4.40;99.90;;;;;;4972637;28;20221;-75
2023/01/08 07:14:30;;;;;;;32.73;30.43;;;4.50;99.90;;;;;;4971586;28;20184;-75
2023/01/08 07:16:56;;;;;;;35.47;32.93;;;4.60;99.90;;;;;;4971149;28;20596;-75
2023/01/08 07:19:22;;;;;;;81.87;77.40;;;4.60;99.90;;;;;;4972662;28;20693;-75
2023/01/08 07:21:48;;;;;;;34.87;32.80;;;4.70;99.90;;;;;;4970923;28;20889;-75
2023/01/08 07:24:13;;;;;;;33.97;31.30;;;4.90;99.90;;;;;;4971592;28;20239;-75
2023/01/08 07:26:39;;;;;;;77.40;72.13;;;5.00;99.90;;;;;;4972250;28;20658;-75
2023/01/08 07:29:05;;;;;;;28.13;26.33;;;5.10;99.90;;;;;;4971076;28;20181;-76
2023/01/08 07:31:31;;;;;;;18.07;16.77;;;5.20;99.90;;;;;;4973475;28;20270;-75
2023/01/08 07:33:57;;;;;;;16.63;15.40;;;5.30;99.90;;;;;;4974552;28;20189;-76
2023/01/08 07:36:23;;;;;;;19.73;18.40;;;5.40;99.90;;;;;;4973006;28;20177;-78
2023/01/08 07:38:49;;;;;;;18.67;17.30;;;5.50;99.90;;;;;;4962072;28;20188;-76
2023/01/08 07:41:16;;;;;;;19.43;17.87;;;5.50;99.90;;;;;;4953876;28;20217;-76
2023/01/08 07:43:42;;;;;;;25.80;24.07;;;5.60;99.90;;;;;;4952014;29;20186;-75
2023/01/08 07:46:07;;;;;;;19.93;18.10;;;5.70;99.90;;;;;;4952799;28;20603;-76
2023/01/08 07:48:33;;;;;;;11.97;10.40;;;5.70;99.90;;;;;;4953843;29;20619;-75
2023/01/08 07:51:04;;;;;;;23.67;21.90;;;5.80;99.90;;;;;;4973298;28;20235;-75
2023/01/08 07:53:30;;;;;;;21.53;20.03;;;5.90;99.90;;;;;;4971832;28;20195;-76
2023/01/08 07:56:03;;;;;;;13.10;12.10;;;5.90;99.90;;;;;;4979144;28;20181;-75
2023/01/08 07:58:29;;;;;;;15.57;14.37;;;6.00;99.90;;;;;;4992429;28;20192;-75
2023/01/08 08:00:55;;;;;;;19.77;18.27;;;6.10;99.90;;;;;;4970203;28;20734;-75
2023/01/08 08:03:21;;;;;;;13.33;12.37;;;6.20;99.90;;;;;;4970840;28;20177;-75
2023/01/08 08:05:47;;;;;;;13.53;12.60;;;6.20;99.90;;;;;;4971990;28;20196;-75
2023/01/08 08:08:13;;;;;;;12.37;11.37;;;6.30;99.90;;;;;;4969080;28;20185;-76
2023/01/08 08:10:40;;;;;;;13.70;12.60;;;6.40;99.90;;;;;;4959159;28;20224;-76
2023/01/08 08:13:07;;;;;;;16.00;14.63;;;6.40;99.90;;;;;;4951390;29;20304;-75
2023/01/08 08:15:33;;;;;;;24.23;18.37;;;6.50;99.90;;;;;;4950740;29;20197;-76
2023/01/08 08:17:59;;;;;;;28.10;20.00;;;6.70;99.90;;;;;;4960273;28;20178;-75
2023/01/08 08:20:25;;;;;;;13.80;12.70;;;6.70;99.90;;;;;;4959296;28;20597;-76
2023/01/08 08:22:51;;;;;;;17.97;16.13;;;6.80;99.90;;;;;;4950592;29;20193;-76
2023/01/08 08:25:17;;;;;;;22.80;21.40;;;6.80;99.90;;;;;;4951455;29;20639;-75
2023/01/08 08:27:43;;;;;;;23.50;22.10;;;6.80;99.90;;;;;;4950718;28;20350;-80
2023/01/08 08:30:11;;;;;;;14.20;13.13;;;6.90;99.90;;;;;;4950635;29;20192;-75
2023/01/08 08:32:37;;;;;;;14.93;14.00;;;6.90;99.90;;;;;;4963647;28;20212;-76
2023/01/08 08:35:03;;;;;;;16.90;15.70;;;6.90;99.90;;;;;;4970657;28;20173;-75
2023/01/08 08:37:29;;;;;;;17.97;16.47;;;6.90;99.90;;;;;;4969979;28;20182;-76
2023/01/08 08:39:55;;;;;;;10.87;10.07;;;6.90;99.90;;;;;;4949640;28;20192;-75
2023/01/08 08:42:21;;;;;;;9.33;8.63;;;7.00;99.90;;;;;;4968509;28;20208;-77
2023/01/08 08:44:46;;;;;;;9.57;8.97;;;7.00;99.90;;;;;;4970565;28;20586;-77
2023/01/08 08:47:14;;;;;;;11.20;10.37;;;7.00;99.90;;;;;;4969529;28;20650;-76
2023/01/08 08:49:39;;;;;;;20.70;19.40;;;7.00;99.90;;;;;;4969415;28;20544;-76
2023/01/08 08:52:05;;;;;;;19.70;18.27;;;7.00;99.90;;;;;;4970132;28;20212;-76
2023/01/08 08:54:31;;;;;;;13.30;11.93;;;7.00;99.90;;;;;;4971214;28;20188;-77
2023/01/08 08:56:57;;;;;;;13.77;12.80;;;7.10;99.90;;;;;;4971072;28;20191;-77
2023/01/08 08:59:22;;;;;;;10.73;9.73;;;7.00;99.90;;;;;;4971390;28;20188;-76
2023/01/08 09:01:48;;;;;;;13.63;12.20;;;7.10;99.90;;;;;;4986056;28;20204;-76
2023/01/08 09:04:14;;;;;;;15.03;13.77;;;7.10;99.90;;;;;;4970512;28;20567;-76
2023/01/08 09:06:40;;;;;;;17.57;16.37;;;7.20;99.90;;;;;;4971677;28;20247;-78
2023/01/08 09:09:05;;;;;;;28.83;27.20;;;7.10;99.90;;;;;;4970937;28;20485;-76
2023/01/08 09:11:31;;;;;;;20.90;19.70;;;7.20;99.90;;;;;;4960548;28;20252;-77
2023/01/08 09:13:57;;;;;;;19.97;18.67;;;7.10;99.90;;;;;;4950570;28;20201;-75
2023/01/08 09:16:23;;;;;;;13.77;12.50;;;7.20;99.90;;;;;;4970921;28;20181;-76
2023/01/08 09:18:48;;;;;;;12.80;11.57;;;7.20;99.90;;;;;;4969401;28;20676;-78
2023/01/08 09:21:14;;;;;;;10.73;9.93;;;7.10;99.90;;;;;;4971032;28;20716;-79
2023/01/08 09:23:40;;;;;;;12.47;11.37;;;7.10;99.90;;;;;;4971804;28;20212;-76
2023/01/08 09:26:06;;;;;;;10.37;9.40;;;7.10;99.90;;;;;;4969980;28;20215;-77
2023/01/08 09:28:32;;;;;;;9.23;8.43;;;7.10;99.90;;;;;;4985496;28;20178;-76
2023/01/08 09:31:02;;;;;;;12.93;11.93;;;7.10;99.90;;;;;;4971041;28;20209;-76
2023/01/08 09:33:28;;;;;;;19.00;17.77;;;7.10;99.90;;;;;;4970566;28;20191;-76
2023/01/08 09:35:54;;;;;;;20.40;18.80;;;7.10;99.90;;;;;;4971345;28;20182;-77
2023/01/08 09:38:20;;;;;;;11.67;10.80;;;7.00;99.90;;;;;;4972146;28;20181;-76
2023/01/08 09:41:08;;;;;;;10.57;9.73;;;7.10;99.90;;;;;;4988956;28;20267;-76
2023/01/08 09:43:36;;;;;;;16.53;14.83;;;7.10;99.90;;;;;;4974812;28;20669;-76
2023/01/08 09:46:04;;;;;;;11.70;10.80;;;7.10;99.90;;;;;;4976828;28;20185;-77
2023/01/08 09:48:34;;;;;;;12.23;11.33;;;7.20;99.90;;;;;;4976422;28;20686;-77
2023/01/08 09:51:00;;;;;;;11.77;10.70;;;7.20;99.90;;;;;;4985436;28;20204;-78
2023/01/08 09:53:26;;;;;;;8.77;8.07;;;7.20;99.90;;;;;;4984992;28;20197;-79
2023/01/08 09:56:00;;;;;;;10.70;9.90;;;7.30;99.90;;;;;;4985226;28;20215;-78
2023/01/08 09:58:42;;;;;;;11.87;10.90;;;7.30;99.90;;;;;;4973428;28;20290;-74
2023/01/08 10:01:12;;;;;;;9.80;9.07;;;7.30;99.90;;;;;;4977260;28;20208;-78
2023/01/08 10:04:13;;;;;;;10.30;9.30;;;7.40;99.90;;;;;;4980143;28;20216;-77
2023/01/08 10:06:40;;;;;;;23.63;21.93;;;7.50;99.90;;;;;;4976595;28;20204;-80
2023/01/08 10:09:10;;;;;;;21.07;19.67;;;7.50;99.90;;;;;;4971862;28;20189;-79
2023/01/08 10:11:44;;;;;;;20.67;19.17;;;7.50;99.90;;;;;;4971893;28;20216;-78
2023/01/08 10:14:38;;;;;;;14.13;13.00;;;7.40;99.90;;;;;;4968343;28;20181;-79
2023/01/08 10:17:26;;;;;;;19.27;17.37;;;7.40;99.90;;;;;;4972271;28;20251;-79
2023/01/08 10:19:52;;;;;;;20.57;18.93;;;7.40;99.90;;;;;;4972709;28;20192;-79
2023/01/08 10:22:23;;;;;;;13.53;12.33;;;7.50;99.90;;;;;;4974803;28;20204;-79
2023/01/08 10:24:50;;;;;;;11.13;10.03;;;7.50;99.90;;;;;;4965636;28;20275;-79
2023/01/08 10:27:19;;;;;;;16.63;15.43;;;7.50;99.90;;;;;;4978990;28;20625;-79
2023/01/08 10:29:45;;;;;;;15.23;13.87;;;7.50;99.90;;;;;;4972456;28;20208;-79
2023/01/08 10:32:17;;;;;;;12.40;11.43;;;7.50;99.90;;;;;;4974187;28;20248;-78
2023/01/08 10:34:50;;;;;;;10.10;8.13;;;7.50;99.90;;;;;;4973144;28;20594;-78
2023/01/08 10:37:21;;;;;;;8.27;7.67;;;7.50;99.90;;;;;;4973335;28;20192;-79
2023/01/08 10:39:48;;;;;;;9.07;8.27;;;7.60;99.90;;;;;;4989640;28;20189;-79
2023/01/08 10:42:17;;;;;;;8.43;7.83;;;7.60;99.90;;;;;;4989137;28;20212;-79
2023/01/08 10:44:58;;;;;;;13.57;12.63;;;7.60;99.90;;;;;;4973938;28;20185;-79
2023/01/08 10:47:27;;;;;;;18.67;17.27;;;7.60;99.90;;;;;;4971865;28;20195;-78
2023/01/08 10:49:53;;;;;;;18.97;17.53;;;7.60;99.90;;;;;;4965550;28;20181;-78
2023/01/08 10:52:22;;;;;;;20.07;18.57;;;7.70;99.90;;;;;;4953813;28;20300;-76
2023/01/08 10:54:48;;;;;;;21.90;20.67;;;7.70;99.90;;;;;;4954136;28;20240;-76
2023/01/08 10:57:26;;;;;;;21.10;19.73;;;7.70;99.90;;;;;;4962492;28;20585;-76
2023/01/08 10:59:54;;;;;;;19.53;18.17;;;7.80;99.90;;;;;;4972629;28;20177;-76
2023/01/08 11:02:33;;;;;;;23.80;22.20;;;7.90;99.90;;;;;;4973134;28;20689;-76
2023/01/08 11:05:00;;;;;;;22.83;21.07;;;8.00;99.90;;;;;;4971092;28;20311;-77
2023/01/08 11:07:27;;;;;;;24.23;22.80;;;8.00;99.90;;;;;;4973610;28;20356;-77
2023/01/08 11:09:53;;;;;;;26.70;25.13;;;8.10;99.90;;;;;;4952702;29;20194;-76
2023/01/08 11:12:36;;;;;;;22.70;21.27;;;8.10;99.90;;;;;;4971517;28;20323;-75
2023/01/08 11:15:05;;;;;;;16.23;15.13;;;8.10;99.90;;;;;;4972618;28;20177;-75
2023/01/08 11:17:33;;;;;;;21.20;19.73;;;8.20;99.90;;;;;;4972070;28;20642;-74
2023/01/08 11:20:22;;;;;;;18.73;17.33;;;8.20;99.90;;;;;;4970664;28;20185;-77
2023/01/08 11:22:48;;;;;;;15.67;14.50;;;8.30;99.90;;;;;;4980120;28;20189;-76
2023/01/08 11:25:23;;;;;;;25.07;23.20;;;8.30;99.90;;;;;;4975948;28;20206;-76
2023/01/08 11:27:51;;;;;;;24.87;23.10;;;8.40;99.90;;;;;;4971201;28;20185;-76
2023/01/08 11:30:21;;;;;;;29.77;27.87;;;8.50;99.90;;;;;;4971993;28;20184;-77
2023/01/08 11:33:05;;;;;;;42.00;38.87;;;8.50;99.90;;;;;;4975884;28;20263;-78
2023/01/08 11:35:38;;;;;;;31.30;28.87;;;8.60;99.90;;;;;;4952615;28;20194;-75
2023/01/08 11:38:05;;;;;;;34.00;30.77;;;8.60;99.90;;;;;;4952128;28;20324;-76
2023/01/08 11:40:50;;;;;;;27.33;24.73;;;8.70;99.90;;;;;;4978634;23;20304;-73
2023/01/08 11:43:26;;;;;;;33.53;30.10;;;8.70;99.90;;;;;;4991592;28;20205;-74
2023/01/08 11:46:24;;;;;;;27.37;24.67;;;8.80;99.90;;;;;;4997191;28;20183;-74
2023/01/08 11:49:32;;;;;;;36.67;33.93;;;8.90;99.90;;;;;;5009989;28;20183;-74
2023/01/08 11:52:12;;;;;;;36.60;34.00;;;9.00;99.90;;;;;;5000941;28;20235;-74
2023/01/08 11:55:12;;;;;;;27.97;25.93;;;9.10;99.90;;;;;;4999203;28;20216;-76
2023/01/08 11:58:02;;;;;;;18.87;17.17;;;9.10;99.90;;;;;;4991340;28;20274;-76
2023/01/08 12:01:06;;;;;;;17.87;16.47;;;9.20;99.90;;;;;;4999995;28;20190;-77
2023/01/08 12:04:00;;;;;;;21.27;19.43;;;9.30;99.90;;;;;;5011234;28;20669;-78
2023/01/08 12:06:29;;;;;;;29.57;27.30;;;9.40;99.90;;;;;;5014813;28;20172;-78
2023/01/08 12:09:11;;;;;;;22.10;20.30;;;9.50;99.90;;;;;;4997055;28;20177;-74
2023/01/08 12:12:01;;;;;;;18.30;16.80;;;9.50;99.90;;;;;;4991062;28;20216;-74
2023/01/08 12:14:49;;;;;;;20.73;19.17;;;9.60;99.90;;;;;;4991471;28;20215;-72
2023/01/08 12:17:24;;;;;;;15.17;13.97;;;9.70;99.90;;;;;;4991559;28;20181;-74
2023/01/08 12:20:18;;;;;;;15.27;13.83;;;9.70;99.90;;;;;;4990778;28;20194;-74
2023/01/08 12:22:54;;;;;;;52.57;49.37;;;9.70;99.90;;;;;;4991691;28;20208;-72
2023/01/08 12:25:39;;;;;;;62.50;58.23;;;9.80;99.90;;;;;;4991398;28;20226;-73
2023/01/08 12:28:19;;;;;;;44.07;41.17;;;9.80;99.90;;;;;;4997122;28;20183;-73
2023/01/08 12:31:24;;;;;;;32.17;29.87;;;9.90;99.90;;;;;;4987390;28;20196;-73
2023/01/08 12:34:06;;;;;;;23.47;21.87;;;9.80;99.90;;;;;;4971458;28;20275;-73
2023/01/08 12:36:53;;;;;;;29.27;27.27;;;9.70;99.90;;;;;;4971877;28;20267;-73
2023/01/08 12:39:22;;;;;;;30.60;28.40;;;9.70;99.90;;;;;;4971887;28;20601;-73
2023/01/08 12:41:49;;;;;;;40.43;37.43;;;9.70;99.90;;;;;;4974880;28;20215;-76
2023/01/08 12:44:25;;;;;;;31.63;29.33;;;9.70;99.90;;;;;;5010259;28;20183;-75
2023/01/08 12:46:53;;;;;;;35.70;33.10;;;9.80;99.90;;;;;;5009401;28;20609;-70
2023/01/08 12:49:34;;;;;;;31.50;29.30;;;9.80;99.90;;;;;;4995233;28;20182;-71
2023/01/08 12:52:21;;;;;;;26.73;24.97;;;9.90;99.90;;;;;;5006167;28;20220;-72